Time;durP1;ratioP1;P1;durP2;ratioP2;P2;SDS_P1;SDS_P2;PMS_P1;PMS_P2;Temp;Humidity;BMP_temperature;BMP_pressure;BME280_temperature;BME280_humidity;BME280_pressure;Samples;Min_cycle;Max_cycle;Signal;HPM_P1;HPM_P2
2023/07/07 00:01:02;;;;;;;17.02;11.18;;;27.70;99.90;;;;;;4880653;29;20052;-50
2023/07/07 00:03:29;;;;;;;21.33;12.65;;;27.70;99.90;;;;;;4864046;29;20021;-51
2023/07/07 00:05:54;;;;;;;15.45;13.30;;;27.70;99.90;;;;;;4864081;29;20116;-50
2023/07/07 00:08:20;;;;;;;15.13;12.68;;;27.70;99.90;;;;;;4880434;29;20113;-50
2023/07/07 00:10:47;;;;;;;13.30;11.07;;;27.70;99.90;;;;;;4880758;29;20060;-50
2023/07/07 00:13:15;;;;;;;18.23;13.70;;;27.70;99.90;;;;;;4880622;29;20036;-51
2023/07/07 00:15:44;;;;;;;15.55;11.30;;;27.70;99.90;;;;;;4880532;29;20029;-50
2023/07/07 00:18:15;;;;;;;14.43;11.63;;;27.70;99.90;;;;;;4880873;29;20072;-50
2023/07/07 00:20:42;;;;;;;15.32;11.32;;;27.70;99.90;;;;;;4868759;29;20073;-50
2023/07/07 00:23:08;;;;;;;13.18;10.60;;;27.70;99.90;;;;;;4880432;29;20029;-51
2023/07/07 00:25:33;;;;;;;14.82;10.95;;;27.70;99.90;;;;;;4880268;29;20483;-51
2023/07/07 00:27:59;;;;;;;17.85;12.18;;;27.70;99.90;;;;;;4880339;29;20112;-51
2023/07/07 00:30:25;;;;;;;13.13;11.73;;;27.70;99.90;;;;;;4863304;29;20064;-50
2023/07/07 00:32:51;;;;;;;15.43;12.13;;;27.70;99.90;;;;;;4880262;29;20489;-50
2023/07/07 00:35:16;;;;;;;15.52;12.23;;;27.70;99.90;;;;;;4880184;29;20053;-50
2023/07/07 00:37:45;;;;;;;15.27;11.52;;;27.70;99.90;;;;;;4863403;29;20072;-51
2023/07/07 00:40:12;;;;;;;12.07;10.10;;;27.70;99.90;;;;;;4880220;29;20173;-50
2023/07/07 00:42:37;;;;;;;15.20;10.27;;;27.70;99.90;;;;;;4880253;29;20033;-51
2023/07/07 00:45:20;;;;;;;13.23;9.45;;;27.60;99.90;;;;;;4879709;29;20037;-50
2023/07/07 00:47:58;;;;;;;10.57;9.13;;;27.70;99.90;;;;;;4879987;29;20028;-50
2023/07/07 00:50:26;;;;;;;12.48;9.25;;;27.70;99.90;;;;;;4863115;29;20112;-51
2023/07/07 00:52:52;;;;;;;16.80;11.00;;;27.60;99.90;;;;;;4879706;29;20041;-50
2023/07/07 00:55:46;;;;;;;17.65;10.48;;;27.60;99.90;;;;;;4879782;29;20021;-50
2023/07/07 00:58:16;;;;;;;11.98;9.18;;;27.60;99.90;;;;;;4879876;29;20059;-50
2023/07/07 01:00:46;;;;;;;12.23;8.70;;;27.60;99.90;;;;;;4880344;29;20041;-51
2023/07/07 01:03:26;;;;;;;12.02;8.77;;;27.60;99.90;;;;;;4879671;29;20033;-51
2023/07/07 01:05:55;;;;;;;11.98;7.95;;;27.60;99.90;;;;;;4879706;29;20025;-50
2023/07/07 01:08:21;;;;;;;10.73;7.53;;;27.60;99.90;;;;;;4879513;29;20419;-50
2023/07/07 01:10:47;;;;;;;8.43;6.63;;;27.60;99.90;;;;;;4879495;29;20025;-50
2023/07/07 01:13:13;;;;;;;12.93;7.93;;;27.60;99.90;;;;;;4844893;29;20044;-50
2023/07/07 01:16:07;;;;;;;10.45;7.32;;;27.60;99.90;;;;;;4863032;29;20029;-49
2023/07/07 01:19:21;;;;;;;11.68;7.05;;;27.60;99.90;;;;;;4871595;29;20458;-50
2023/07/07 01:22:05;;;;;;;12.52;7.10;;;27.60;99.90;;;;;;4822084;29;20030;-50
2023/07/07 01:24:46;;;;;;;10.55;7.55;;;27.60;99.90;;;;;;4852417;29;20048;-50
2023/07/07 01:27:15;;;;;;;8.95;6.53;;;27.60;99.90;;;;;;4879393;29;20017;-50
2023/07/07 01:30:22;;;;;;;11.32;7.13;;;27.60;99.90;;;;;;4879449;29;20041;-52
2023/07/07 01:32:50;;;;;;;10.38;6.55;;;27.60;99.90;;;;;;4870434;29;20060;-50
2023/07/07 01:40:48;;;;;;;11.48;6.18;;;27.50;99.90;;;;;;5176257;23;20058;-51
2023/07/07 01:43:22;;;;;;;8.32;5.70;;;27.60;99.90;;;;;;4878785;29;20037;-49
2023/07/07 01:46:05;;;;;;;8.77;5.45;;;27.50;99.90;;;;;;4879131;29;20120;-49
2023/07/07 01:48:41;;;;;;;9.15;5.90;;;27.50;99.90;;;;;;4879294;29;20802;-50
2023/07/07 01:51:09;;;;;;;9.32;5.72;;;27.50;99.90;;;;;;4862325;29;20053;-49
2023/07/07 01:53:36;;;;;;;9.55;5.82;;;27.50;99.90;;;;;;4878590;29;20493;-49
2023/07/07 01:56:02;;;;;;;10.63;6.68;;;27.50;99.90;;;;;;4879044;29;20033;-49
2023/07/07 01:58:31;;;;;;;9.90;5.20;;;27.50;99.90;;;;;;4878882;29;20037;-50
2023/07/07 02:00:58;;;;;;;9.85;5.78;;;27.50;99.90;;;;;;4878518;29;20077;-50
2023/07/07 02:03:26;;;;;;;12.75;6.18;;;27.50;99.90;;;;;;4878864;29;20096;-50
2023/07/07 02:05:52;;;;;;;9.45;4.55;;;27.50;99.90;;;;;;4878459;29;20052;-50
2023/07/07 02:08:18;;;;;;;8.93;4.95;;;27.50;99.90;;;;;;4878526;29;20025;-49
2023/07/07 02:10:44;;;;;;;9.57;5.85;;;27.40;99.90;;;;;;4878571;29;20032;-49
2023/07/07 02:13:10;;;;;;;10.80;4.80;;;27.40;99.90;;;;;;4878682;29;20537;-50
2023/07/07 02:15:36;;;;;;;7.85;4.53;;;27.40;99.90;;;;;;4878431;29;20031;-49
2023/07/07 02:18:02;;;;;;;7.53;4.95;;;27.40;99.90;;;;;;4861634;29;20021;-49
2023/07/07 02:20:28;;;;;;;9.57;5.40;;;27.40;99.90;;;;;;4878438;29;20482;-50
2023/07/07 02:22:53;;;;;;;12.23;6.32;;;27.40;99.90;;;;;;4878362;29;20036;-49
2023/07/07 02:25:19;;;;;;;8.23;4.85;;;27.40;99.90;;;;;;4878640;29;20018;-49
2023/07/07 02:27:45;;;;;;;10.48;4.90;;;27.40;99.90;;;;;;4878328;29;20105;-49
2023/07/07 02:30:11;;;;;;;10.68;5.55;;;27.40;99.90;;;;;;4878477;29;20022;-49
2023/07/07 02:32:37;;;;;;;10.60;6.07;;;27.40;99.90;;;;;;4878209;29;20045;-49
2023/07/07 02:35:03;;;;;;;9.73;5.45;;;27.40;99.90;;;;;;4878272;29;20036;-49
2023/07/07 02:37:29;;;;;;;8.27;5.50;;;27.40;99.90;;;;;;4877806;29;20544;-49
2023/07/07 02:39:55;;;;;;;7.93;5.25;;;27.40;99.90;;;;;;4890168;23;20065;-49
2023/07/07 02:42:21;;;;;;;9.55;4.70;;;27.40;99.90;;;;;;4878436;29;20040;-49
2023/07/07 02:44:47;;;;;;;8.55;4.88;;;27.40;99.90;;;;;;4861067;29;20030;-49
2023/07/07 02:47:13;;;;;;;9.60;6.35;;;27.40;99.90;;;;;;4861612;29;20032;-48
2023/07/07 02:49:39;;;;;;;8.32;5.30;;;27.40;99.90;;;;;;4878493;29;20029;-48
2023/07/07 02:52:06;;;;;;;5.93;4.85;;;27.40;99.90;;;;;;4877072;29;20029;-48
2023/07/07 02:54:32;;;;;;;;;;;27.50;99.90;;;;;;4878532;29;20032;-48
2023/07/07 02:56:58;;;;;;;6.60;4.72;;;27.40;99.90;;;;;;4878199;29;19907;-48
2023/07/07 02:59:24;;;;;;;10.02;4.80;;;27.40;99.90;;;;;;4861147;29;20409;-48
2023/07/07 03:01:50;;;;;;;8.57;4.93;;;27.40;99.90;;;;;;4878060;29;20029;-48
2023/07/07 03:04:16;;;;;;;8.63;5.47;;;27.40;99.90;;;;;;4878048;29;20393;-48
2023/07/07 03:06:42;;;;;;;6.30;4.32;;;27.40;99.90;;;;;;4865557;29;20084;-48
2023/07/07 03:09:08;;;;;;;8.43;4.70;;;27.40;99.90;;;;;;4878298;29;20474;-48
2023/07/07 03:11:34;;;;;;;8.05;4.82;;;27.40;99.90;;;;;;4860962;29;20029;-49
2023/07/07 03:14:00;;;;;;;8.05;4.80;;;27.40;99.90;;;;;;4871391;29;20112;-49
2023/07/07 03:16:31;;;;;;;9.02;5.20;;;27.40;99.90;;;;;;4859796;29;20025;-49
2023/07/07 03:18:59;;;;;;;14.32;5.70;;;27.50;99.90;;;;;;4877655;29;20029;-49
2023/07/07 03:21:25;;;;;;;7.43;5.00;;;27.50;99.90;;;;;;4877704;29;20044;-49
2023/07/07 03:23:52;;;;;;;8.38;5.30;;;27.50;99.90;;;;;;4877725;29;20032;-49
2023/07/07 03:26:19;;;;;;;10.75;5.63;;;27.50;99.90;;;;;;4877933;29;20107;-48
2023/07/07 03:28:45;;;;;;;10.23;5.32;;;27.50;99.90;;;;;;4877977;29;20465;-48
2023/07/07 03:31:17;;;;;;;6.45;4.63;;;27.50;99.90;;;;;;4877797;29;20034;-48
2023/07/07 03:33:44;;;;;;;11.85;4.63;;;27.50;99.90;;;;;;4877871;29;20100;-49
2023/07/07 03:36:11;;;;;;;7.78;3.70;;;27.50;99.90;;;;;;4860970;29;20117;-48
2023/07/07 03:38:38;;;;;;;8.50;4.68;;;27.50;99.90;;;;;;4877453;29;20037;-50
2023/07/07 03:41:04;;;;;;;7.43;4.55;;;27.50;99.90;;;;;;4866051;23;20533;-50
2023/07/07 03:43:33;;;;;;;8.70;4.63;;;27.50;99.90;;;;;;4860484;29;20543;-50
2023/07/07 03:46:03;;;;;;;6.45;4.68;;;27.50;99.90;;;;;;4877407;29;20025;-50
2023/07/07 03:48:28;;;;;;;6.22;4.88;;;27.50;99.90;;;;;;4877664;29;20073;-50
2023/07/07 03:50:58;;;;;;;7.22;4.88;;;27.50;99.90;;;;;;4872114;29;20520;-51
2023/07/07 03:53:29;;;;;;;9.43;5.25;;;27.50;99.90;;;;;;4871396;29;20126;-51
2023/07/07 03:55:55;;;;;;;10.25;6.18;;;27.50;99.90;;;;;;4877646;29;20477;-51
2023/07/07 03:58:23;;;;;;;10.93;5.75;;;27.50;99.90;;;;;;4877706;29;20033;-51
2023/07/07 04:00:49;;;;;;;6.97;5.13;;;27.50;99.90;;;;;;4877442;29;20009;-51
2023/07/07 04:03:16;;;;;;;8.00;4.95;;;27.50;99.90;;;;;;4878897;29;20037;-51
2023/07/07 04:05:43;;;;;;;;;;;27.50;99.90;;;;;;4864822;29;20025;-51
2023/07/07 04:08:08;;;;;;;8.70;5.32;;;27.50;99.90;;;;;;4880454;29;19911;-51
2023/07/07 04:10:34;;;;;;;11.95;4.72;;;27.50;99.90;;;;;;4880701;29;20025;-51
2023/07/07 04:13:00;;;;;;;9.48;5.30;;;27.50;99.90;;;;;;4880238;29;20451;-51
2023/07/07 04:15:26;;;;;;;12.02;5.72;;;27.50;99.90;;;;;;4880196;29;20037;-50
2023/07/07 04:17:52;;;;;;;9.05;4.70;;;27.50;99.90;;;;;;4880742;29;20033;-50
2023/07/07 04:20:18;;;;;;;8.60;5.40;;;27.50;99.90;;;;;;4880050;29;20084;-51
2023/07/07 04:22:43;;;;;;;9.30;5.00;;;27.50;99.90;;;;;;4875123;29;20037;-51
2023/07/07 04:25:12;;;;;;;7.45;4.72;;;27.50;99.90;;;;;;4873606;29;20085;-51
2023/07/07 04:27:38;;;;;;;13.75;5.18;;;27.50;99.90;;;;;;4880199;29;20032;-50
2023/07/07 04:30:05;;;;;;;6.95;5.07;;;27.50;99.90;;;;;;4863392;29;20032;-50
2023/07/07 04:32:32;;;;;;;7.60;5.10;;;27.50;99.90;;;;;;4880103;29;20382;-50
2023/07/07 04:34:59;;;;;;;7.53;4.90;;;27.50;99.90;;;;;;4880267;29;20032;-50
2023/07/07 04:37:25;;;;;;;9.40;5.15;;;27.50;99.90;;;;;;4867449;29;20037;-50
2023/07/07 04:39:51;;;;;;;9.68;5.65;;;27.50;99.90;;;;;;4879883;29;20545;-50
2023/07/07 04:42:18;;;;;;;9.70;5.75;;;27.50;99.90;;;;;;4880123;29;20397;-51
2023/07/07 04:44:44;;;;;;;8.70;5.53;;;27.50;99.90;;;;;;4880250;29;20160;-50
2023/07/07 04:47:10;;;;;;;8.57;5.70;;;27.50;99.90;;;;;;4880017;29;20029;-50
2023/07/07 04:49:36;;;;;;;8.15;5.30;;;27.50;99.90;;;;;;4879887;29;20025;-50
2023/07/07 04:52:02;;;;;;;10.05;6.45;;;27.50;99.90;;;;;;4879408;29;20044;-50
2023/07/07 04:54:28;;;;;;;9.77;6.03;;;27.50;99.90;;;;;;4863355;29;20473;-50
2023/07/07 04:56:54;;;;;;;10.05;5.85;;;27.50;99.90;;;;;;4879839;29;20104;-50
2023/07/07 04:59:20;;;;;;;9.63;6.30;;;27.50;99.90;;;;;;4880110;29;20025;-50
2023/07/07 05:01:46;;;;;;;10.25;6.15;;;27.50;99.90;;;;;;4879550;29;20069;-50
2023/07/07 05:04:12;;;;;;;9.25;6.00;;;27.50;99.90;;;;;;4879762;29;20029;-50
2023/07/07 05:06:39;;;;;;;13.70;5.63;;;27.50;99.90;;;;;;4879161;29;20029;-50
2023/07/07 05:09:06;;;;;;;9.50;6.40;;;27.50;99.90;;;;;;4854806;29;20025;-50
2023/07/07 05:11:33;;;;;;;7.45;6.00;;;27.50;99.90;;;;;;4868568;29;20029;-50
2023/07/07 05:14:00;;;;;;;6.93;6.10;;;27.50;99.90;;;;;;4844061;29;20495;-51
2023/07/07 05:16:31;;;;;;;11.07;5.70;;;27.50;99.90;;;;;;4867385;29;20026;-50
2023/07/07 05:18:57;;;;;;;6.93;6.30;;;27.60;99.90;;;;;;4848568;29;20482;-50
2023/07/07 05:21:24;;;;;;;14.15;6.18;;;27.60;99.90;;;;;;4862696;29;20025;-51
2023/07/07 05:23:53;;;;;;;;;;;27.60;99.90;;;;;;4879629;29;20021;-51
2023/07/07 05:26:21;;;;;;;10.88;5.90;;;27.60;99.90;;;;;;4862668;29;19908;-51
2023/07/07 05:28:48;;;;;;;13.32;6.82;;;27.60;99.90;;;;;;4879163;29;20067;-50
2023/07/07 05:31:14;;;;;;;10.83;6.33;;;27.60;99.90;;;;;;4878898;29;20036;-50
2023/07/07 05:33:40;;;;;;;11.52;6.53;;;27.50;99.90;;;;;;4877376;29;20041;-51
2023/07/07 05:36:10;;;;;;;11.55;6.13;;;27.50;99.90;;;;;;4878954;29;20053;-51
2023/07/07 05:38:39;;;;;;;9.48;5.85;;;27.50;99.90;;;;;;4878614;29;20021;-52
2023/07/07 05:41:05;;;;;;;8.05;6.32;;;27.50;99.90;;;;;;4878988;29;20059;-51
2023/07/07 05:43:30;;;;;;;15.93;5.75;;;27.50;99.90;;;;;;4878499;29;20033;-52
2023/07/07 05:45:57;;;;;;;8.48;5.60;;;27.50;99.90;;;;;;4878853;29;20036;-52
2023/07/07 05:48:24;;;;;;;10.33;5.90;;;27.40;99.90;;;;;;4878051;29;20485;-52
2023/07/07 05:50:50;;;;;;;10.57;6.45;;;27.50;99.90;;;;;;4878837;29;20256;-52
2023/07/07 05:53:16;;;;;;;8.73;6.20;;;27.40;99.90;;;;;;4878721;29;20037;-53
2023/07/07 05:55:46;;;;;;;12.60;7.30;;;27.40;99.90;;;;;;4878343;29;20039;-51
2023/07/07 05:58:13;;;;;;;10.75;6.20;;;27.40;99.90;;;;;;4862691;29;20025;-51
2023/07/07 06:00:39;;;;;;;9.43;5.55;;;27.40;99.90;;;;;;4878270;29;20025;-51
2023/07/07 06:03:05;;;;;;;11.57;6.20;;;27.40;99.90;;;;;;4878629;29;20123;-51
2023/07/07 06:05:31;;;;;;;7.95;5.50;;;27.40;99.90;;;;;;4878437;29;20025;-51
2023/07/07 06:07:57;;;;;;;8.05;5.55;;;27.40;99.90;;;;;;4878553;29;20482;-51
2023/07/07 06:10:24;;;;;;;10.27;6.13;;;27.40;99.90;;;;;;4878811;29;20025;-51
2023/07/07 06:12:51;;;;;;;10.32;5.82;;;27.30;99.90;;;;;;4878729;29;20073;-51
2023/07/07 06:15:17;;;;;;;11.38;5.55;;;27.30;99.90;;;;;;4878305;29;20036;-51
2023/07/07 06:17:44;;;;;;;9.75;5.65;;;27.30;99.90;;;;;;4861825;29;20029;-51
2023/07/07 06:20:11;;;;;;;8.25;5.78;;;27.30;99.90;;;;;;4861753;29;20378;-51
2023/07/07 06:22:37;;;;;;;10.73;5.72;;;27.30;99.90;;;;;;4878132;29;20028;-51
2023/07/07 06:25:03;;;;;;;11.07;5.72;;;27.30;99.90;;;;;;4878213;29;20157;-51
2023/07/07 06:27:30;;;;;;;6.82;5.18;;;27.30;99.90;;;;;;4878112;29;20505;-52
2023/07/07 06:29:55;;;;;;;8.93;5.78;;;27.30;99.90;;;;;;4878235;29;20504;-51
2023/07/07 06:32:21;;;;;;;9.27;5.30;;;27.20;99.90;;;;;;4878202;29;20037;-51
2023/07/07 06:34:47;;;;;;;11.65;5.43;;;27.20;99.90;;;;;;4868476;29;20040;-51
2023/07/07 06:37:13;;;;;;;10.30;5.00;;;27.20;99.90;;;;;;4875582;29;20017;-51
2023/07/07 06:39:38;;;;;;;16.30;6.35;;;27.20;99.90;;;;;;4878014;29;20493;-51
2023/07/07 06:42:04;;;;;;;8.88;5.63;;;27.20;99.90;;;;;;4878074;29;20025;-51
2023/07/07 06:44:32;;;;;;;12.63;6.25;;;27.20;99.90;;;;;;4877976;29;20543;-52
2023/07/07 06:46:58;;;;;;;8.65;5.15;;;27.20;99.90;;;;;;4877814;29;20025;-51
2023/07/07 06:49:24;;;;;;;9.63;5.47;;;27.20;99.90;;;;;;4878369;29;20039;-51
2023/07/07 06:51:50;;;;;;;9.52;5.45;;;27.20;99.90;;;;;;4877474;29;20482;-51
2023/07/07 06:54:15;;;;;;;11.20;5.53;;;27.20;99.90;;;;;;4861271;29;20081;-52
2023/07/07 06:56:41;;;;;;;7.95;5.05;;;27.20;99.90;;;;;;4878026;29;20056;-51
2023/07/07 06:59:08;;;;;;;9.95;5.60;;;27.20;99.90;;;;;;4877455;29;20453;-51
2023/07/07 07:01:34;;;;;;;13.00;5.80;;;27.20;99.90;;;;;;4877949;29;20029;-51
2023/07/07 07:04:00;;;;;;;9.75;5.53;;;27.20;99.90;;;;;;4878013;29;20097;-52
2023/07/07 07:06:29;;;;;;;9.70;5.38;;;27.20;99.90;;;;;;4877844;29;20028;-52
2023/07/07 07:08:54;;;;;;;11.23;5.70;;;27.20;99.90;;;;;;4865458;29;20063;-52
2023/07/07 07:11:20;;;;;;;12.25;7.00;;;27.20;99.90;;;;;;4877740;29;20033;-51
2023/07/07 07:13:47;;;;;;;11.20;5.32;;;27.20;99.90;;;;;;4877624;29;20033;-51
2023/07/07 07:16:13;;;;;;;8.38;5.75;;;27.20;99.90;;;;;;4877664;29;20062;-51
2023/07/07 07:18:39;;;;;;;19.52;5.82;;;27.20;99.90;;;;;;4877415;29;20522;-52
2023/07/07 07:21:04;;;;;;;9.68;5.30;;;27.20;99.90;;;;;;4878004;29;20029;-51
2023/07/07 07:23:30;;;;;;;14.45;6.15;;;27.20;99.90;;;;;;4860457;29;20053;-51
2023/07/07 07:25:56;;;;;;;10.93;5.60;;;27.20;99.90;;;;;;4877821;29;20025;-51
2023/07/07 07:28:22;;;;;;;12.80;5.82;;;27.20;99.90;;;;;;4877714;29;20033;-51
2023/07/07 07:30:48;;;;;;;9.63;5.68;;;27.20;99.90;;;;;;4860663;29;20025;-51
2023/07/07 07:33:20;;;;;;;11.63;6.25;;;27.20;99.90;;;;;;4877684;29;20043;-52
2023/07/07 07:35:46;;;;;;;12.77;6.00;;;27.20;99.90;;;;;;4877811;29;20112;-51
2023/07/07 07:38:15;;;;;;;14.52;5.93;;;27.20;99.90;;;;;;4879105;29;20029;-51
2023/07/07 07:40:41;;;;;;;15.45;9.32;;;27.30;99.90;;;;;;4880910;29;20048;-51
2023/07/07 07:43:06;;;;;;;12.57;7.47;;;27.30;99.90;;;;;;4864259;29;20029;-51
2023/07/07 07:45:32;;;;;;;12.68;8.98;;;27.30;99.90;;;;;;4880646;29;20399;-51
2023/07/07 07:47:58;;;;;;;22.80;18.33;;;27.30;99.90;;;;;;4881201;29;20081;-51
2023/07/07 07:50:24;;;;;;;14.70;9.38;;;27.30;99.90;;;;;;4880765;29;20033;-50
2023/07/07 07:52:50;;;;;;;16.08;8.27;;;27.40;99.90;;;;;;4880558;29;20048;-52
2023/07/07 07:55:16;;;;;;;15.68;8.93;;;27.40;99.90;;;;;;4880896;29;20025;-52
2023/07/07 07:57:45;;;;;;;14.07;7.50;;;27.40;99.90;;;;;;4880680;29;20060;-53
2023/07/07 08:00:12;;;;;;;11.70;6.57;;;27.40;99.90;;;;;;4880500;29;20022;-51
2023/07/07 08:02:37;;;;;;;12.75;6.75;;;27.50;99.90;;;;;;4880695;29;20021;-51
2023/07/07 08:05:04;;;;;;;14.05;8.70;;;27.50;99.90;;;;;;4880786;29;20382;-51
2023/07/07 08:07:31;;;;;;;14.93;8.40;;;27.50;99.90;;;;;;4880538;29;20102;-51
2023/07/07 08:09:57;;;;;;;15.27;6.25;;;27.50;99.90;;;;;;4881144;29;20021;-51
2023/07/07 08:12:23;;;;;;;10.38;6.30;;;27.60;99.90;;;;;;4880281;29;20029;-51
2023/07/07 08:14:49;;;;;;;9.75;4.70;;;27.60;99.90;;;;;;4880529;29;20036;-51
2023/07/07 08:17:15;;;;;;;11.98;6.10;;;27.70;99.90;;;;;;4880122;29;20149;-51
2023/07/07 08:19:43;;;;;;;11.43;6.07;;;27.70;99.90;;;;;;4880473;29;20489;-50
2023/07/07 08:22:14;;;;;;;10.65;5.00;;;27.70;99.90;;;;;;4880131;29;20029;-51
2023/07/07 08:24:43;;;;;;;15.32;8.48;;;27.70;99.90;;;;;;4880645;29;20033;-50
2023/07/07 08:27:10;;;;;;;8.63;4.82;;;27.80;99.90;;;;;;4851265;29;20021;-51
2023/07/07 08:29:37;;;;;;;12.45;5.85;;;27.80;99.90;;;;;;4879890;29;20135;-51
2023/07/07 08:32:04;;;;;;;18.52;5.65;;;27.90;99.90;;;;;;4863407;29;20061;-51
2023/07/07 08:34:30;;;;;;;7.68;5.47;;;27.90;99.90;;;;;;4880333;29;20060;-51
2023/07/07 08:36:59;;;;;;;9.50;5.65;;;27.90;99.90;;;;;;4879725;29;20025;-51
2023/07/07 08:39:28;;;;;;;7.63;4.68;;;27.90;99.90;;;;;;4879940;29;20075;-51
2023/07/07 08:42:00;;;;;;;9.07;5.20;;;28.00;99.90;;;;;;4863462;29;20347;-51
2023/07/07 08:44:29;;;;;;;9.20;5.70;;;28.00;99.90;;;;;;4879807;29;20025;-51
2023/07/07 08:47:20;;;;;;;11.00;6.63;;;28.00;99.90;;;;;;4878021;29;20036;-51
2023/07/07 08:50:01;;;;;;;10.95;7.47;;;28.00;99.90;;;;;;4878629;29;20499;-51
2023/07/07 08:52:57;;;;;;;15.73;6.72;;;28.00;99.90;;;;;;4879733;29;20533;-51
2023/07/07 08:55:53;;;;;;;12.25;6.78;;;28.00;99.90;;;;;;4879680;29;20021;-51
2023/07/07 08:58:28;;;;;;;12.98;9.43;;;28.10;99.90;;;;;;4863150;29;20033;-52
2023/07/07 09:01:18;;;;;;;16.35;8.95;;;28.10;99.90;;;;;;4879089;29;20037;-51
2023/07/07 09:04:20;;;;;;;11.18;6.20;;;28.20;99.90;;;;;;4879593;29;20029;-51
2023/07/07 09:06:52;;;;;;;13.57;5.75;;;28.20;99.90;;;;;;4879069;29;20021;-51
2023/07/07 09:09:39;;;;;;;9.88;6.00;;;28.20;99.90;;;;;;4873913;29;20021;-51
2023/07/07 09:12:26;;;;;;;11.45;6.47;;;28.30;99.90;;;;;;4875693;29;20041;-51
2023/07/07 09:14:54;;;;;;;15.25;8.50;;;28.30;99.90;;;;;;4879120;29;20434;-52
2023/07/07 09:17:28;;;;;;;15.88;5.68;;;28.30;99.90;;;;;;4879569;29;20052;-51
2023/07/07 09:19:55;;;;;;;25.50;19.23;;;28.30;99.90;;;;;;4879514;29;20549;-51
2023/07/07 09:22:38;;;;;;;14.95;6.80;;;28.30;99.90;;;;;;4865074;29;20040;-52
2023/07/07 09:25:28;;;;;;;16.42;10.00;;;28.30;99.90;;;;;;4879228;29;20029;-52
2023/07/07 09:28:07;;;;;;;11.38;6.18;;;28.30;99.90;;;;;;4860094;29;20029;-52
2023/07/07 09:30:35;;;;;;;12.02;7.55;;;28.30;99.90;;;;;;4879094;29;20053;-52
2023/07/07 09:33:01;;;;;;;12.18;6.07;;;28.30;99.90;;;;;;4879183;29;20048;-52
2023/07/07 09:35:35;;;;;;;10.52;5.30;;;28.30;99.90;;;;;;4879127;29;20029;-52
2023/07/07 09:38:17;;;;;;;6.38;5.43;;;28.30;99.90;;;;;;4878785;29;20060;-52
2023/07/07 09:40:46;;;;;;;10.00;6.10;;;28.30;99.90;;;;;;4878788;29;20053;-51
2023/07/07 09:43:39;;;;;;;10.80;6.47;;;28.30;99.90;;;;;;4878960;29;20025;-52
2023/07/07 09:46:12;;;;;;;11.50;5.65;;;28.30;99.90;;;;;;4878962;29;20028;-52
2023/07/07 09:48:45;;;;;;;15.63;7.07;;;28.30;99.90;;;;;;4878516;29;20033;-52
2023/07/07 09:51:38;;;;;;;11.00;5.85;;;28.30;99.90;;;;;;4878898;29;20040;-52
2023/07/07 09:54:07;;;;;;;9.43;6.22;;;28.30;99.90;;;;;;4878940;29;20060;-53
2023/07/07 09:56:49;;;;;;;8.75;5.25;;;28.40;99.90;;;;;;4878956;29;20532;-52
2023/07/07 09:59:21;;;;;;;11.73;5.50;;;28.40;99.90;;;;;;4878344;29;20108;-52
2023/07/07 10:01:50;;;;;;;12.85;6.25;;;28.40;99.90;;;;;;4878187;29;20060;-52
2023/07/07 10:04:19;;;;;;;14.10;5.47;;;28.50;99.90;;;;;;4878352;29;20032;-52
2023/07/07 10:06:55;;;;;;;14.73;6.75;;;28.50;99.90;;;;;;4878430;29;20429;-52
2023/07/07 10:09:21;;;;;;;10.98;5.90;;;28.50;99.90;;;;;;4878491;29;20434;-52
2023/07/07 10:11:48;;;;;;;7.72;5.15;;;28.50;99.90;;;;;;4878408;29;20029;-53
2023/07/07 10:14:15;;;;;;;15.02;6.07;;;28.50;99.90;;;;;;4878334;29;20025;-52
2023/07/07 10:17:05;;;;;;;15.63;6.53;;;28.60;99.90;;;;;;4867560;29;20482;-51
2023/07/07 10:19:34;;;;;;;12.18;5.38;;;28.60;99.90;;;;;;4856859;29;20029;-51
2023/07/07 10:22:01;;;;;;;11.52;4.57;;;28.60;99.90;;;;;;4877728;29;20033;-51
2023/07/07 10:24:28;;;;;;;7.95;5.15;;;28.60;99.90;;;;;;4850085;29;20025;-51
2023/07/07 10:26:53;;;;;;;10.52;5.68;;;28.60;99.90;;;;;;4877952;29;20127;-52
2023/07/07 10:29:26;;;;;;;10.57;4.97;;;28.60;99.90;;;;;;4872442;29;20524;-51
2023/07/07 10:31:52;;;;;;;8.98;4.45;;;28.60;99.90;;;;;;4855039;29;20029;-51
2023/07/07 10:34:36;;;;;;;19.17;5.80;;;28.60;99.90;;;;;;4853667;29;20025;-51
2023/07/07 10:37:03;;;;;;;13.63;6.35;;;28.60;99.90;;;;;;4878038;29;20025;-52
2023/07/07 10:39:31;;;;;;;9.02;4.68;;;28.60;99.90;;;;;;4877717;29;20051;-52
2023/07/07 10:41:57;;;;;;;8.68;5.22;;;28.60;99.90;;;;;;4877984;29;20029;-52
2023/07/07 10:44:24;;;;;;;8.95;4.88;;;28.60;99.90;;;;;;4853421;29;20045;-52
2023/07/07 10:46:50;;;;;;;9.80;5.22;;;28.50;99.90;;;;;;4877582;29;20025;-52
2023/07/07 10:49:18;;;;;;;9.05;4.93;;;28.50;99.90;;;;;;4877947;29;20371;-52
2023/07/07 10:52:12;;;;;;;9.27;4.40;;;28.50;99.90;;;;;;4860717;29;20359;-51
2023/07/07 10:54:59;;;;;;;11.68;5.82;;;28.50;99.90;;;;;;4878086;29;20045;-51
2023/07/07 10:57:34;;;;;;;11.00;4.80;;;28.60;99.90;;;;;;4853874;29;20036;-52
2023/07/07 11:00:25;;;;;;;8.45;4.80;;;28.60;99.90;;;;;;4877467;29;20022;-52
2023/07/07 11:03:04;;;;;;;15.60;8.52;;;28.60;99.90;;;;;;4859331;29;20025;-52
2023/07/07 11:05:29;;;;;;;11.57;5.32;;;28.60;99.90;;;;;;4877905;29;20108;-52
2023/07/07 11:08:20;;;;;;;10.90;6.07;;;28.60;99.90;;;;;;4877691;29;20112;-52
2023/07/07 11:11:01;;;;;;;12.55;4.75;;;28.60;99.90;;;;;;4877961;29;20049;-53
2023/07/07 11:13:48;;;;;;;9.02;4.57;;;28.70;99.90;;;;;;4879410;29;20044;-52
2023/07/07 11:16:20;;;;;;;;;;;28.70;99.90;;;;;;4881969;29;20112;-52
2023/07/07 11:19:16;;;;;;;6.28;4.53;;;28.70;99.90;;;;;;4881058;29;20043;-52
2023/07/07 11:22:10;;;;;;;7.82;5.28;;;28.70;99.90;;;;;;4881324;29;20029;-52
2023/07/07 11:24:54;;;;;;;12.40;6.00;;;28.80;99.90;;;;;;4881652;29;20097;-52
2023/07/07 11:27:38;;;;;;;9.73;5.47;;;28.80;99.90;;;;;;4881218;29;20025;-52
2023/07/07 11:30:33;;;;;;;11.48;6.30;;;28.80;99.90;;;;;;4881107;29;20035;-52
2023/07/07 11:33:32;;;;;;;10.32;4.90;;;28.80;99.90;;;;;;4881354;29;20129;-52
2023/07/07 11:36:27;;;;;;;13.38;6.95;;;28.90;99.90;;;;;;4859060;29;20025;-52
2023/07/07 11:39:00;;;;;;;8.88;4.32;;;28.90;99.90;;;;;;4880343;29;20240;-52
2023/07/07 11:41:38;;;;;;;9.48;6.80;;;28.90;99.90;;;;;;4881215;29;20100;-52
2023/07/07 11:44:03;;;;;;;16.98;9.23;;;28.90;99.90;;;;;;4881070;29;20025;-52
2023/07/07 11:47:06;;;;;;;11.02;4.55;;;28.90;99.90;;;;;;4880783;29;20021;-52
2023/07/07 11:49:49;;;;;;;8.32;4.30;;;29.00;99.90;;;;;;4849670;29;20355;-52
2023/07/07 11:52:29;;;;;;;12.07;5.57;;;28.90;99.90;;;;;;4875990;29;20045;-52
2023/07/07 11:55:04;;;;;;;11.32;4.55;;;29.00;99.90;;;;;;4871582;29;20029;-52
2023/07/07 11:57:30;;;;;;;12.95;6.20;;;29.00;99.90;;;;;;4880315;29;20100;-52
2023/07/07 11:59:56;;;;;;;15.77;5.68;;;28.90;99.90;;;;;;4880639;29;20116;-52
2023/07/07 12:02:29;;;;;;;9.20;5.10;;;28.90;99.90;;;;;;4880749;29;20367;-52
2023/07/07 12:04:58;;;;;;;12.40;5.28;;;28.90;99.90;;;;;;4880714;29;20033;-52
2023/07/07 12:07:35;;;;;;;7.32;3.85;;;28.90;99.90;;;;;;4880500;29;20021;-52
2023/07/07 12:10:14;;;;;;;10.07;4.55;;;29.00;99.90;;;;;;4880959;29;20356;-52
2023/07/07 12:13:09;;;;;;;12.57;4.55;;;29.00;99.90;;;;;;4856061;29;20041;-52
2023/07/07 12:15:43;;;;;;;13.50;5.10;;;29.00;99.90;;;;;;4863932;29;20063;-52
2023/07/07 12:18:12;;;;;;;11.48;4.85;;;29.00;99.90;;;;;;4880781;29;20359;-52
2023/07/07 12:20:49;;;;;;;10.65;4.85;;;29.00;99.90;;;;;;4880951;29;20037;-52
2023/07/07 12:23:30;;;;;;;8.18;4.15;;;29.00;99.90;;;;;;4880214;29;20048;-52
2023/07/07 12:26:17;;;;;;;11.27;4.50;;;29.00;99.90;;;;;;4880620;29;20024;-52
2023/07/07 12:28:48;;;;;;;7.18;3.88;;;29.10;99.90;;;;;;4880369;29;20042;-52
2023/07/07 12:31:15;;;;;;;14.80;6.35;;;29.10;99.90;;;;;;4880428;29;20029;-52
2023/07/07 12:33:41;;;;;;;;;;;29.10;99.90;;;;;;4851873;29;20045;-51
2023/07/07 12:36:08;;;;;;;10.32;4.40;;;29.20;99.90;;;;;;4880641;29;19940;-52
2023/07/07 12:38:35;;;;;;;8.13;4.18;;;29.20;99.90;;;;;;4880187;29;20482;-52
2023/07/07 12:41:14;;;;;;;11.20;4.10;;;29.20;99.90;;;;;;4880186;29;20100;-52
2023/07/07 12:44:01;;;;;;;11.60;4.78;;;29.20;99.90;;;;;;4880218;29;20111;-52
2023/07/07 12:46:36;;;;;;;6.63;3.40;;;29.20;99.90;;;;;;4880056;29;20104;-51
2023/07/07 12:49:16;;;;;;;7.38;4.13;;;29.20;99.90;;;;;;4880158;29;20025;-51
2023/07/07 12:51:43;;;;;;;9.20;3.90;;;29.20;99.90;;;;;;4880345;29;20378;-51
2023/07/07 12:54:35;;;;;;;13.95;3.78;;;29.20;99.90;;;;;;4880098;29;20389;-51
2023/07/07 12:57:21;;;;;;;7.85;4.07;;;29.20;99.90;;;;;;4879848;29;20036;-52
2023/07/07 12:59:46;;;;;;;7.57;3.70;;;29.20;99.90;;;;;;4879827;29;20029;-50
2023/07/07 13:02:24;;;;;;;9.32;4.10;;;29.20;99.90;;;;;;4879151;29;20036;-52
2023/07/07 13:05:09;;;;;;;;;;;29.20;99.90;;;;;;4868891;29;20128;-51
2023/07/07 13:07:39;;;;;;;11.17;5.43;;;29.20;99.90;;;;;;4866182;29;20261;-52